sensor_id;sensor_type;location;lat;lon;timestamp;P1;durP1;ratioP1;P2;durP2;ratioP2
43552;SDS011;29153;42.696;23.218;2023-04-03T00:00:56;3.30;;;2.20;;
43552;SDS011;29153;42.696;23.218;2023-04-03T00:03:24;3.45;;;2.00;;
43552;SDS011;29153;42.696;23.218;2023-04-03T00:05:52;4.75;;;2.60;;
43552;SDS011;29153;42.696;23.218;2023-04-03T00:08:20;4.40;;;2.40;;
43552;SDS011;29153;42.696;23.218;2023-04-03T00:10:47;4.70;;;2.40;;
43552;SDS011;29153;42.696;23.218;2023-04-03T00:13:15;3.70;;;2.15;;
43552;SDS011;29153;42.696;23.218;2023-04-03T00:15:43;5.15;;;1.95;;
43552;SDS011;29153;42.696;23.218;2023-04-03T00:18:11;8.90;;;4.45;;
43552;SDS011;29153;42.696;23.218;2023-04-03T00:20:38;6.17;;;3.65;;
43552;SDS011;29153;42.696;23.218;2023-04-03T00:23:06;6.85;;;3.45;;
43552;SDS011;29153;42.696;23.218;2023-04-03T00:25:33;7.25;;;3.75;;
43552;SDS011;29153;42.696;23.218;2023-04-03T00:28:03;4.47;;;2.22;;
43552;SDS011;29153;42.696;23.218;2023-04-03T00:30:31;6.22;;;3.55;;
43552;SDS011;29153;42.696;23.218;2023-04-03T00:32:59;5.40;;;3.10;;
43552;SDS011;29153;42.696;23.218;2023-04-03T00:35:27;6.75;;;3.67;;
43552;SDS011;29153;42.696;23.218;2023-04-03T00:37:55;4.78;;;2.70;;
43552;SDS011;29153;42.696;23.218;2023-04-03T00:40:24;9.38;;;3.40;;
43552;SDS011;29153;42.696;23.218;2023-04-03T00:45:43;3.22;;;1.75;;
43552;SDS011;29153;42.696;23.218;2023-04-03T00:47:56;3.15;;;1.10;;
43552;SDS011;29153;42.696;23.218;2023-04-03T00:50:27;3.90;;;1.22;;
43552;SDS011;29153;42.696;23.218;2023-04-03T00:52:56;2.40;;;1.32;;
43552;SDS011;29153;42.696;23.218;2023-04-03T00:55:25;3.00;;;1.60;;
43552;SDS011;29153;42.696;23.218;2023-04-03T00:57:52;2.52;;;0.90;;
43552;SDS011;29153;42.696;23.218;2023-04-03T01:02:49;1.80;;;1.20;;
43552;SDS011;29153;42.696;23.218;2023-04-03T01:05:17;2.33;;;1.20;;
43552;SDS011;29153;42.696;23.218;2023-04-03T01:07:47;2.35;;;1.00;;
43552;SDS011;29153;42.696;23.218;2023-04-03T01:10:16;2.27;;;1.30;;
43552;SDS011;29153;42.696;23.218;2023-04-03T01:12:47;2.80;;;1.10;;
43552;SDS011;29153;42.696;23.218;2023-04-03T01:15:20;3.22;;;1.30;;
43552;SDS011;29153;42.696;23.218;2023-04-03T01:17:53;3.00;;;1.65;;
43552;SDS011;29153;42.696;23.218;2023-04-03T01:25:48;2.02;;;1.30;;
43552;SDS011;29153;42.696;23.218;2023-04-03T01:28:22;2.10;;;1.17;;
43552;SDS011;29153;42.696;23.218;2023-04-03T01:31:05;2.62;;;1.30;;
43552;SDS011;29153;42.696;23.218;2023-04-03T01:33:37;3.55;;;2.10;;
43552;SDS011;29153;42.696;23.218;2023-04-03T01:36:05;3.37;;;1.27;;
43552;SDS011;29153;42.696;23.218;2023-04-03T01:38:33;4.20;;;1.10;;
43552;SDS011;29153;42.696;23.218;2023-04-03T01:41:01;2.20;;;1.12;;
43552;SDS011;29153;42.696;23.218;2023-04-03T01:43:28;2.35;;;1.47;;
43552;SDS011;29153;42.696;23.218;2023-04-03T01:45:56;2.90;;;1.47;;
43552;SDS011;29153;42.696;23.218;2023-04-03T01:48:23;2.92;;;1.05;;
43552;SDS011;29153;42.696;23.218;2023-04-03T01:50:51;2.40;;;1.00;;
43552;SDS011;29153;42.696;23.218;2023-04-03T01:53:18;1.62;;;0.90;;
43552;SDS011;29153;42.696;23.218;2023-04-03T01:55:46;3.70;;;1.22;;
43552;SDS011;29153;42.696;23.218;2023-04-03T01:58:14;2.08;;;1.30;;
43552;SDS011;29153;42.696;23.218;2023-04-03T02:00:42;3.40;;;1.85;;
43552;SDS011;29153;42.696;23.218;2023-04-03T02:03:09;2.87;;;1.60;;
43552;SDS011;29153;42.696;23.218;2023-04-03T02:05:37;3.02;;;1.55;;
43552;SDS011;29153;42.696;23.218;2023-04-03T02:08:04;4.50;;;1.20;;
43552;SDS011;29153;42.696;23.218;2023-04-03T02:10:32;2.65;;;1.30;;
43552;SDS011;29153;42.696;23.218;2023-04-03T02:12:59;2.55;;;1.17;;
43552;SDS011;29153;42.696;23.218;2023-04-03T02:15:27;2.45;;;1.40;;
43552;SDS011;29153;42.696;23.218;2023-04-03T02:17:55;2.02;;;1.10;;
43552;SDS011;29153;42.696;23.218;2023-04-03T02:20:22;2.60;;;1.25;;
43552;SDS011;29153;42.696;23.218;2023-04-03T02:22:50;1.82;;;1.15;;
43552;SDS011;29153;42.696;23.218;2023-04-03T02:25:17;2.02;;;1.17;;
43552;SDS011;29153;42.696;23.218;2023-04-03T02:27:45;2.22;;;1.17;;
43552;SDS011;29153;42.696;23.218;2023-04-03T02:30:13;3.55;;;1.52;;
43552;SDS011;29153;42.696;23.218;2023-04-03T02:32:41;3.17;;;1.35;;
43552;SDS011;29153;42.696;23.218;2023-04-03T02:35:10;1.40;;;0.60;;
43552;SDS011;29153;42.696;23.218;2023-04-03T02:37:38;2.25;;;1.30;;
43552;SDS011;29153;42.696;23.218;2023-04-03T02:40:06;2.30;;;1.52;;
43552;SDS011;29153;42.696;23.218;2023-04-03T02:42:34;2.83;;;0.90;;
43552;SDS011;29153;42.696;23.218;2023-04-03T02:45:02;2.20;;;1.30;;
43552;SDS011;29153;42.696;23.218;2023-04-03T02:47:29;1.55;;;0.90;;
43552;SDS011;29153;42.696;23.218;2023-04-03T02:49:57;2.35;;;0.90;;
43552;SDS011;29153;42.696;23.218;2023-04-03T02:52:24;2.67;;;1.20;;
43552;SDS011;29153;42.696;23.218;2023-04-03T02:54:52;2.30;;;1.60;;
43552;SDS011;29153;42.696;23.218;2023-04-03T02:57:19;2.52;;;0.95;;
43552;SDS011;29153;42.696;23.218;2023-04-03T02:59:47;1.98;;;1.10;;
43552;SDS011;29153;42.696;23.218;2023-04-03T03:02:14;3.37;;;1.22;;
43552;SDS011;29153;42.696;23.218;2023-04-03T03:04:42;2.30;;;1.30;;
43552;SDS011;29153;42.696;23.218;2023-04-03T03:07:09;2.35;;;1.20;;
43552;SDS011;29153;42.696;23.218;2023-04-03T03:09:37;4.65;;;2.08;;
43552;SDS011;29153;42.696;23.218;2023-04-03T03:12:04;2.25;;;1.10;;
43552;SDS011;29153;42.696;23.218;2023-04-03T03:14:32;1.95;;;1.20;;
43552;SDS011;29153;42.696;23.218;2023-04-03T03:16:59;7.45;;;1.98;;
43552;SDS011;29153;42.696;23.218;2023-04-03T03:19:27;5.87;;;2.30;;
43552;SDS011;29153;42.696;23.218;2023-04-03T03:21:54;4.87;;;2.77;;
43552;SDS011;29153;42.696;23.218;2023-04-03T03:24:22;3.70;;;2.15;;
43552;SDS011;29153;42.696;23.218;2023-04-03T03:26:50;3.00;;;1.65;;
43552;SDS011;29153;42.696;23.218;2023-04-03T03:29:17;2.65;;;1.55;;
43552;SDS011;29153;42.696;23.218;2023-04-03T03:31:45;5.47;;;2.02;;
43552;SDS011;29153;42.696;23.218;2023-04-03T03:34:12;2.58;;;1.82;;
43552;SDS011;29153;42.696;23.218;2023-04-03T03:36:40;3.95;;;2.60;;
43552;SDS011;29153;42.696;23.218;2023-04-03T03:39:07;3.98;;;2.80;;
43552;SDS011;29153;42.696;23.218;2023-04-03T03:41:36;4.65;;;3.42;;
43552;SDS011;29153;42.696;23.218;2023-04-03T03:44:03;4.95;;;3.33;;
43552;SDS011;29153;42.696;23.218;2023-04-03T03:46:31;7.42;;;5.05;;
43552;SDS011;29153;42.696;23.218;2023-04-03T03:48:58;10.00;;;4.72;;
43552;SDS011;29153;42.696;23.218;2023-04-03T03:51:26;4.85;;;3.95;;
43552;SDS011;29153;42.696;23.218;2023-04-03T03:53:53;3.27;;;2.40;;
43552;SDS011;29153;42.696;23.218;2023-04-03T03:56:21;4.45;;;2.45;;
43552;SDS011;29153;42.696;23.218;2023-04-03T03:58:48;3.92;;;3.08;;
43552;SDS011;29153;42.696;23.218;2023-04-03T04:01:16;3.62;;;2.60;;
43552;SDS011;29153;42.696;23.218;2023-04-03T04:03:43;4.42;;;2.37;;
43552;SDS011;29153;42.696;23.218;2023-04-03T04:06:10;4.55;;;2.58;;
43552;SDS011;29153;42.696;23.218;2023-04-03T04:08:38;4.67;;;3.67;;
43552;SDS011;29153;42.696;23.218;2023-04-03T04:11:06;4.22;;;3.17;;
43552;SDS011;29153;42.696;23.218;2023-04-03T04:13:34;3.35;;;2.40;;
43552;SDS011;29153;42.696;23.218;2023-04-03T04:16:01;6.05;;;2.90;;
43552;SDS011;29153;42.696;23.218;2023-04-03T04:18:29;4.10;;;2.90;;
43552;SDS011;29153;42.696;23.218;2023-04-03T04:20:56;3.60;;;2.77;;
43552;SDS011;29153;42.696;23.218;2023-04-03T04:23:24;4.35;;;2.12;;
43552;SDS011;29153;42.696;23.218;2023-04-03T04:25:51;3.22;;;2.17;;
43552;SDS011;29153;42.696;23.218;2023-04-03T04:28:19;2.80;;;1.47;;
43552;SDS011;29153;42.696;23.218;2023-04-03T04:30:46;3.15;;;1.47;;
43552;SDS011;29153;42.696;23.218;2023-04-03T04:33:14;2.55;;;1.55;;
43552;SDS011;29153;42.696;23.218;2023-04-03T04:35:42;4.83;;;2.02;;
43552;SDS011;29153;42.696;23.218;2023-04-03T04:38:09;3.25;;;2.00;;
43552;SDS011;29153;42.696;23.218;2023-04-03T04:40:37;2.72;;;1.75;;
43552;SDS011;29153;42.696;23.218;2023-04-03T04:43:05;3.08;;;2.00;;
43552;SDS011;29153;42.696;23.218;2023-04-03T04:45:32;2.37;;;1.65;;
43552;SDS011;29153;42.696;23.218;2023-04-03T04:48:00;2.58;;;1.45;;
43552;SDS011;29153;42.696;23.218;2023-04-03T04:50:27;3.20;;;1.47;;
43552;SDS011;29153;42.696;23.218;2023-04-03T04:52:55;2.20;;;1.47;;
43552;SDS011;29153;42.696;23.218;2023-04-03T04:55:22;3.67;;;1.82;;
43552;SDS011;29153;42.696;23.218;2023-04-03T04:57:50;5.65;;;2.08;;
43552;SDS011;29153;42.696;23.218;2023-04-03T05:00:17;3.62;;;2.20;;
43552;SDS011;29153;42.696;23.218;2023-04-03T05:02:45;3.70;;;2.17;;
43552;SDS011;29153;42.696;23.218;2023-04-03T05:05:12;6.15;;;1.85;;
43552;SDS011;29153;42.696;23.218;2023-04-03T05:07:40;3.40;;;1.92;;
43552;SDS011;29153;42.696;23.218;2023-04-03T05:10:08;2.47;;;1.62;;
43552;SDS011;29153;42.696;23.218;2023-04-03T05:12:36;4.62;;;2.00;;
43552;SDS011;29153;42.696;23.218;2023-04-03T05:15:03;3.17;;;1.10;;
43552;SDS011;29153;42.696;23.218;2023-04-03T05:17:31;4.67;;;1.70;;
43552;SDS011;29153;42.696;23.218;2023-04-03T05:19:59;8.05;;;1.90;;
43552;SDS011;29153;42.696;23.218;2023-04-03T05:22:26;8.65;;;1.55;;
43552;SDS011;29153;42.696;23.218;2023-04-03T05:24:54;3.87;;;1.75;;
43552;SDS011;29153;42.696;23.218;2023-04-03T05:27:21;3.92;;;1.85;;
43552;SDS011;29153;42.696;23.218;2023-04-03T05:29:50;4.80;;;2.80;;
43552;SDS011;29153;42.696;23.218;2023-04-03T05:32:19;6.65;;;3.15;;
43552;SDS011;29153;42.696;23.218;2023-04-03T05:34:47;5.08;;;2.90;;
43552;SDS011;29153;42.696;23.218;2023-04-03T05:37:16;8.80;;;4.45;;
43552;SDS011;29153;42.696;23.218;2023-04-03T05:39:44;9.30;;;3.50;;
43552;SDS011;29153;42.696;23.218;2023-04-03T05:42:11;9.70;;;4.95;;
43552;SDS011;29153;42.696;23.218;2023-04-03T05:44:40;12.45;;;6.50;;
43552;SDS011;29153;42.696;23.218;2023-04-03T05:47:08;15.25;;;6.83;;
43552;SDS011;29153;42.696;23.218;2023-04-03T05:49:35;15.03;;;7.75;;
43552;SDS011;29153;42.696;23.218;2023-04-03T05:52:04;12.88;;;6.78;;
43552;SDS011;29153;42.696;23.218;2023-04-03T05:54:34;10.58;;;4.80;;
43552;SDS011;29153;42.696;23.218;2023-04-03T05:57:01;9.45;;;4.78;;
43552;SDS011;29153;42.696;23.218;2023-04-03T05:59:29;7.75;;;4.50;;
43552;SDS011;29153;42.696;23.218;2023-04-03T06:01:56;7.92;;;3.20;;
43552;SDS011;29153;42.696;23.218;2023-04-03T06:04:23;7.08;;;2.70;;
43552;SDS011;29153;42.696;23.218;2023-04-03T06:06:52;4.33;;;2.33;;
43552;SDS011;29153;42.696;23.218;2023-04-03T06:09:22;6.05;;;2.55;;
43552;SDS011;29153;42.696;23.218;2023-04-03T06:11:52;10.10;;;2.50;;
43552;SDS011;29153;42.696;23.218;2023-04-03T06:14:19;5.40;;;3.05;;
43552;SDS011;29153;42.696;23.218;2023-04-03T06:16:47;3.92;;;2.02;;
43552;SDS011;29153;42.696;23.218;2023-04-03T06:19:15;4.28;;;2.00;;
43552;SDS011;29153;42.696;23.218;2023-04-03T06:21:42;4.92;;;2.08;;
43552;SDS011;29153;42.696;23.218;2023-04-03T06:24:11;4.10;;;2.02;;
43552;SDS011;29153;42.696;23.218;2023-04-03T06:26:40;4.12;;;2.40;;
43552;SDS011;29153;42.696;23.218;2023-04-03T06:29:08;4.90;;;2.30;;
43552;SDS011;29153;42.696;23.218;2023-04-03T06:31:36;5.70;;;2.60;;
43552;SDS011;29153;42.696;23.218;2023-04-03T06:34:04;6.17;;;2.08;;
43552;SDS011;29153;42.696;23.218;2023-04-03T06:39:00;5.15;;;2.17;;
43552;SDS011;29153;42.696;23.218;2023-04-03T06:43:55;6.40;;;2.42;;
43552;SDS011;29153;42.696;23.218;2023-04-03T06:46:25;5.30;;;2.90;;
43552;SDS011;29153;42.696;23.218;2023-04-03T06:48:53;6.83;;;3.05;;
43552;SDS011;29153;42.696;23.218;2023-04-03T06:51:27;4.30;;;2.87;;
43552;SDS011;29153;42.696;23.218;2023-04-03T06:56:24;4.30;;;2.20;;
43552;SDS011;29153;42.696;23.218;2023-04-03T07:01:26;4.22;;;2.02;;
43552;SDS011;29153;42.696;23.218;2023-04-03T07:03:55;4.62;;;2.00;;
43552;SDS011;29153;42.696;23.218;2023-04-03T07:06:23;6.10;;;2.42;;
43552;SDS011;29153;42.696;23.218;2023-04-03T07:08:53;3.90;;;1.77;;
43552;SDS011;29153;42.696;23.218;2023-04-03T07:11:21;4.70;;;2.00;;
43552;SDS011;29153;42.696;23.218;2023-04-03T07:13:49;2.95;;;1.40;;
43552;SDS011;29153;42.696;23.218;2023-04-03T07:16:17;3.30;;;1.45;;
43552;SDS011;29153;42.696;23.218;2023-04-03T07:18:46;2.70;;;1.72;;
43552;SDS011;29153;42.696;23.218;2023-04-03T07:21:13;3.92;;;1.30;;
43552;SDS011;29153;42.696;23.218;2023-04-03T07:23:41;2.27;;;1.37;;
43552;SDS011;29153;42.696;23.218;2023-04-03T07:26:08;5.47;;;1.42;;
43552;SDS011;29153;42.696;23.218;2023-04-03T07:28:36;3.22;;;1.72;;
43552;SDS011;29153;42.696;23.218;2023-04-03T07:31:06;3.02;;;1.20;;
43552;SDS011;29153;42.696;23.218;2023-04-03T07:33:36;3.67;;;1.20;;
43552;SDS011;29153;42.696;23.218;2023-04-03T07:36:05;4.28;;;2.05;;
43552;SDS011;29153;42.696;23.218;2023-04-03T07:38:34;4.83;;;1.32;;
43552;SDS011;29153;42.696;23.218;2023-04-03T07:41:02;2.30;;;1.00;;
43552;SDS011;29153;42.696;23.218;2023-04-03T07:43:31;5.17;;;1.80;;
43552;SDS011;29153;42.696;23.218;2023-04-03T07:45:59;4.25;;;1.40;;
43552;SDS011;29153;42.696;23.218;2023-04-03T07:48:27;4.97;;;1.30;;
43552;SDS011;29153;42.696;23.218;2023-04-03T07:50:58;4.12;;;1.95;;
43552;SDS011;29153;42.696;23.218;2023-04-03T07:53:28;3.02;;;1.47;;
43552;SDS011;29153;42.696;23.218;2023-04-03T07:58:23;3.25;;;1.00;;
43552;SDS011;29153;42.696;23.218;2023-04-03T08:00:51;2.42;;;1.12;;
43552;SDS011;29153;42.696;23.218;2023-04-03T08:03:18;3.70;;;1.40;;
43552;SDS011;29153;42.696;23.218;2023-04-03T08:05:47;4.03;;;1.90;;
43552;SDS011;29153;42.696;23.218;2023-04-03T08:08:17;3.00;;;1.52;;
43552;SDS011;29153;42.696;23.218;2023-04-03T08:10:55;7.15;;;4.70;;
43552;SDS011;29153;42.696;23.218;2023-04-03T08:13:21;6.50;;;2.55;;
43552;SDS011;29153;42.696;23.218;2023-04-03T08:15:49;7.40;;;3.83;;
43552;SDS011;29153;42.696;23.218;2023-04-03T08:18:16;13.80;;;4.87;;
43552;SDS011;29153;42.696;23.218;2023-04-03T08:20:46;5.42;;;2.92;;
43552;SDS011;29153;42.696;23.218;2023-04-03T08:23:14;10.18;;;4.03;;
43552;SDS011;29153;42.696;23.218;2023-04-03T08:25:42;7.97;;;3.72;;
43552;SDS011;29153;42.696;23.218;2023-04-03T08:28:11;9.83;;;5.12;;
43552;SDS011;29153;42.696;23.218;2023-04-03T08:30:39;7.92;;;3.15;;
43552;SDS011;29153;42.696;23.218;2023-04-03T08:33:09;9.13;;;3.75;;
43552;SDS011;29153;42.696;23.218;2023-04-03T08:35:40;12.03;;;5.00;;
43552;SDS011;29153;42.696;23.218;2023-04-03T08:38:09;19.90;;;13.55;;
43552;SDS011;29153;42.696;23.218;2023-04-03T08:40:36;9.33;;;5.50;;
43552;SDS011;29153;42.696;23.218;2023-04-03T08:45:50;7.22;;;3.47;;
43552;SDS011;29153;42.696;23.218;2023-04-03T08:48:17;12.95;;;5.67;;
43552;SDS011;29153;42.696;23.218;2023-04-03T08:50:53;13.20;;;5.70;;
43552;SDS011;29153;42.696;23.218;2023-04-03T08:53:23;12.43;;;6.70;;
43552;SDS011;29153;42.696;23.218;2023-04-03T08:55:56;16.17;;;6.90;;
43552;SDS011;29153;42.696;23.218;2023-04-03T08:58:25;16.15;;;8.35;;
43552;SDS011;29153;42.696;23.218;2023-04-03T09:00:58;10.75;;;6.40;;
43552;SDS011;29153;42.696;23.218;2023-04-03T09:06:00;15.13;;;6.78;;
43552;SDS011;29153;42.696;23.218;2023-04-03T09:08:37;16.00;;;7.12;;
43552;SDS011;29153;42.696;23.218;2023-04-03T09:11:24;19.27;;;7.67;;
43552;SDS011;29153;42.696;23.218;2023-04-03T09:17:11;21.75;;;7.55;;
43552;SDS011;29153;42.696;23.218;2023-04-03T09:19:44;14.43;;;8.05;;
43552;SDS011;29153;42.696;23.218;2023-04-03T09:22:19;10.63;;;5.62;;
43552;SDS011;29153;42.696;23.218;2023-04-03T09:27:38;8.50;;;5.55;;
43552;SDS011;29153;42.696;23.218;2023-04-03T09:30:11;13.25;;;6.33;;
43552;SDS011;29153;42.696;23.218;2023-04-03T09:32:37;15.13;;;6.17;;
43552;SDS011;29153;42.696;23.218;2023-04-03T09:35:15;10.72;;;5.58;;
43552;SDS011;29153;42.696;23.218;2023-04-03T09:37:40;13.13;;;7.50;;
43552;SDS011;29153;42.696;23.218;2023-04-03T09:42:58;12.43;;;5.00;;
43552;SDS011;29153;42.696;23.218;2023-04-03T09:45:29;8.65;;;4.60;;
43552;SDS011;29153;42.696;23.218;2023-04-03T09:48:05;8.90;;;5.28;;
43552;SDS011;29153;42.696;23.218;2023-04-03T09:53:29;9.60;;;5.30;;
43552;SDS011;29153;42.696;23.218;2023-04-03T09:56:18;14.20;;;5.53;;
43552;SDS011;29153;42.696;23.218;2023-04-03T09:58:47;8.53;;;5.17;;
43552;SDS011;29153;42.696;23.218;2023-04-03T10:04:06;13.93;;;7.30;;
43552;SDS011;29153;42.696;23.218;2023-04-03T10:06:37;13.45;;;7.95;;
43552;SDS011;29153;42.696;23.218;2023-04-03T10:09:19;12.78;;;7.03;;
43552;SDS011;29153;42.696;23.218;2023-04-03T10:12:04;10.95;;;6.20;;
43552;SDS011;29153;42.696;23.218;2023-04-03T10:14:34;10.43;;;4.83;;
43552;SDS011;29153;42.696;23.218;2023-04-03T10:19:51;9.90;;;5.20;;
43552;SDS011;29153;42.696;23.218;2023-04-03T10:22:23;10.85;;;6.30;;
43552;SDS011;29153;42.696;23.218;2023-04-03T10:25:04;12.30;;;6.10;;
43552;SDS011;29153;42.696;23.218;2023-04-03T10:33:13;11.70;;;4.95;;
43552;SDS011;29153;42.696;23.218;2023-04-03T10:41:28;11.78;;;6.97;;
43552;SDS011;29153;42.696;23.218;2023-04-03T10:46:53;11.30;;;6.12;;
43552;SDS011;29153;42.696;23.218;2023-04-03T10:49:38;14.50;;;7.12;;
43552;SDS011;29153;42.696;23.218;2023-04-03T10:57:22;13.60;;;5.50;;
43552;SDS011;29153;42.696;23.218;2023-04-03T10:59:53;11.80;;;4.00;;
43552;SDS011;29153;42.696;23.218;2023-04-03T11:02:30;11.48;;;3.72;;
43552;SDS011;29153;42.696;23.218;2023-04-03T11:05:03;11.08;;;3.98;;
43552;SDS011;29153;42.696;23.218;2023-04-03T11:07:40;8.50;;;3.95;;
43552;SDS011;29153;42.696;23.218;2023-04-03T11:10:23;7.70;;;3.70;;
43552;SDS011;29153;42.696;23.218;2023-04-03T11:12:54;9.20;;;4.45;;
43552;SDS011;29153;42.696;23.218;2023-04-03T11:15:41;10.55;;;4.47;;
43552;SDS011;29153;42.696;23.218;2023-04-03T11:18:15;8.03;;;3.25;;
43552;SDS011;29153;42.696;23.218;2023-04-03T11:21:03;5.58;;;3.22;;
43552;SDS011;29153;42.696;23.218;2023-04-03T11:23:34;8.78;;;3.67;;
43552;SDS011;29153;42.696;23.218;2023-04-03T11:26:07;7.55;;;3.95;;
43552;SDS011;29153;42.696;23.218;2023-04-03T11:28:35;8.50;;;3.60;;
43552;SDS011;29153;42.696;23.218;2023-04-03T11:33:42;6.50;;;3.08;;
43552;SDS011;29153;42.696;23.218;2023-04-03T11:36:28;6.87;;;3.35;;
43552;SDS011;29153;42.696;23.218;2023-04-03T11:38:59;8.45;;;4.03;;
43552;SDS011;29153;42.696;23.218;2023-04-03T11:41:29;5.05;;;2.72;;
43552;SDS011;29153;42.696;23.218;2023-04-03T11:44:03;6.25;;;3.05;;
43552;SDS011;29153;42.696;23.218;2023-04-03T12:08:43;7.53;;;3.67;;
43552;SDS011;29153;42.696;23.218;2023-04-03T12:16:22;8.30;;;3.50;;
43552;SDS011;29153;42.696;23.218;2023-04-03T12:18:55;8.40;;;4.22;;
43552;SDS011;29153;42.696;23.218;2023-04-03T12:26:46;7.10;;;3.52;;
43552;SDS011;29153;42.696;23.218;2023-04-03T12:29:23;7.45;;;3.77;;
43552;SDS011;29153;42.696;23.218;2023-04-03T12:32:34;7.60;;;3.60;;
43552;SDS011;29153;42.696;23.218;2023-04-03T12:40:43;9.35;;;4.22;;
43552;SDS011;29153;42.696;23.218;2023-04-03T12:43:28;8.25;;;3.92;;
43552;SDS011;29153;42.696;23.218;2023-04-03T12:54:15;11.80;;;6.42;;
43552;SDS011;29153;42.696;23.218;2023-04-03T12:56:46;14.50;;;7.17;;
43552;SDS011;29153;42.696;23.218;2023-04-03T12:59:16;12.70;;;6.30;;
43552;SDS011;29153;42.696;23.218;2023-04-03T13:01:54;12.65;;;7.03;;
43552;SDS011;29153;42.696;23.218;2023-04-03T13:04:23;11.75;;;5.72;;
43552;SDS011;29153;42.696;23.218;2023-04-03T13:06:51;16.37;;;7.33;;
43552;SDS011;29153;42.696;23.218;2023-04-03T13:09:23;13.25;;;7.00;;
43552;SDS011;29153;42.696;23.218;2023-04-03T13:11:57;12.37;;;7.40;;
43552;SDS011;29153;42.696;23.218;2023-04-03T13:14:31;16.37;;;8.98;;
43552;SDS011;29153;42.696;23.218;2023-04-03T13:17:20;19.17;;;9.28;;
43552;SDS011;29153;42.696;23.218;2023-04-03T13:19:32;17.35;;;10.85;;
43552;SDS011;29153;42.696;23.218;2023-04-03T13:22:04;19.57;;;10.43;;
43552;SDS011;29153;42.696;23.218;2023-04-03T13:24:33;14.87;;;7.90;;
43552;SDS011;29153;42.696;23.218;2023-04-03T13:27:04;21.77;;;10.75;;
43552;SDS011;29153;42.696;23.218;2023-04-03T13:32:03;15.43;;;10.08;;
43552;SDS011;29153;42.696;23.218;2023-04-03T13:34:37;22.67;;;13.10;;
43552;SDS011;29153;42.696;23.218;2023-04-03T13:37:06;22.00;;;12.80;;
43552;SDS011;29153;42.696;23.218;2023-04-03T13:39:36;16.17;;;9.45;;
43552;SDS011;29153;42.696;23.218;2023-04-03T13:42:21;27.82;;;15.50;;
43552;SDS011;29153;42.696;23.218;2023-04-03T13:44:45;39.63;;;18.32;;
43552;SDS011;29153;42.696;23.218;2023-04-03T13:47:16;19.85;;;11.97;;
43552;SDS011;29153;42.696;23.218;2023-04-03T13:52:41;19.57;;;11.28;;
43552;SDS011;29153;42.696;23.218;2023-04-03T14:00:49;34.83;;;19.25;;
43552;SDS011;29153;42.696;23.218;2023-04-03T14:05:54;33.05;;;17.70;;
43552;SDS011;29153;42.696;23.218;2023-04-03T14:08:22;38.67;;;16.20;;
43552;SDS011;29153;42.696;23.218;2023-04-03T14:10:50;30.45;;;15.93;;
43552;SDS011;29153;42.696;23.218;2023-04-03T14:13:19;29.75;;;15.38;;
43552;SDS011;29153;42.696;23.218;2023-04-03T14:15:47;28.10;;;15.75;;
43552;SDS011;29153;42.696;23.218;2023-04-03T14:18:17;28.05;;;15.53;;
43552;SDS011;29153;42.696;23.218;2023-04-03T14:20:46;24.98;;;13.95;;
43552;SDS011;29153;42.696;23.218;2023-04-03T14:23:15;19.30;;;11.38;;
43552;SDS011;29153;42.696;23.218;2023-04-03T14:25:42;21.55;;;12.33;;
43552;SDS011;29153;42.696;23.218;2023-04-03T14:28:31;23.27;;;13.10;;
43552;SDS011;29153;42.696;23.218;2023-04-03T14:30:47;21.52;;;10.70;;
43552;SDS011;29153;42.696;23.218;2023-04-03T14:33:18;20.68;;;12.63;;
43552;SDS011;29153;42.696;23.218;2023-04-03T14:35:48;21.02;;;11.85;;
43552;SDS011;29153;42.696;23.218;2023-04-03T14:40:52;24.72;;;12.45;;
43552;SDS011;29153;42.696;23.218;2023-04-03T14:43:20;22.25;;;11.70;;
43552;SDS011;29153;42.696;23.218;2023-04-03T14:45:49;31.80;;;13.80;;
43552;SDS011;29153;42.696;23.218;2023-04-03T14:48:19;26.10;;;13.70;;
43552;SDS011;29153;42.696;23.218;2023-04-03T14:50:48;19.00;;;11.53;;
43552;SDS011;29153;42.696;23.218;2023-04-03T14:53:16;17.45;;;9.95;;
43552;SDS011;29153;42.696;23.218;2023-04-03T14:55:46;18.95;;;12.43;;
43552;SDS011;29153;42.696;23.218;2023-04-03T14:58:16;18.77;;;12.03;;
43552;SDS011;29153;42.696;23.218;2023-04-03T15:00:46;16.30;;;10.70;;
43552;SDS011;29153;42.696;23.218;2023-04-03T15:03:17;15.58;;;9.00;;
43552;SDS011;29153;42.696;23.218;2023-04-03T15:05:47;15.05;;;9.53;;
43552;SDS011;29153;42.696;23.218;2023-04-03T15:08:22;11.18;;;6.62;;
43552;SDS011;29153;42.696;23.218;2023-04-03T15:10:55;14.78;;;9.35;;
43552;SDS011;29153;42.696;23.218;2023-04-03T15:13:23;11.73;;;7.58;;
43552;SDS011;29153;42.696;23.218;2023-04-03T15:15:51;14.78;;;8.95;;
43552;SDS011;29153;42.696;23.218;2023-04-03T15:18:20;15.08;;;10.48;;
43552;SDS011;29153;42.696;23.218;2023-04-03T15:20:52;13.70;;;8.00;;
43552;SDS011;29153;42.696;23.218;2023-04-03T15:23:20;11.25;;;7.78;;
43552;SDS011;29153;42.696;23.218;2023-04-03T15:25:53;15.78;;;8.75;;
43552;SDS011;29153;42.696;23.218;2023-04-03T15:30:51;10.63;;;7.83;;
43552;SDS011;29153;42.696;23.218;2023-04-03T15:33:19;14.07;;;7.97;;
43552;SDS011;29153;42.696;23.218;2023-04-03T15:35:47;14.80;;;8.08;;
43552;SDS011;29153;42.696;23.218;2023-04-03T15:38:14;12.10;;;7.08;;
43552;SDS011;29153;42.696;23.218;2023-04-03T15:40:43;12.98;;;7.80;;
43552;SDS011;29153;42.696;23.218;2023-04-03T15:43:12;11.33;;;7.12;;
43552;SDS011;29153;42.696;23.218;2023-04-03T15:45:40;11.60;;;7.28;;
43552;SDS011;29153;42.696;23.218;2023-04-03T15:48:09;13.22;;;9.63;;
43552;SDS011;29153;42.696;23.218;2023-04-03T15:53:04;13.30;;;8.63;;
43552;SDS011;29153;42.696;23.218;2023-04-03T15:55:33;11.80;;;7.20;;
43552;SDS011;29153;42.696;23.218;2023-04-03T15:58:02;14.47;;;7.97;;
43552;SDS011;29153;42.696;23.218;2023-04-03T16:00:30;16.40;;;8.90;;
43552;SDS011;29153;42.696;23.218;2023-04-03T16:03:05;15.15;;;7.90;;
43552;SDS011;29153;42.696;23.218;2023-04-03T16:05:29;17.12;;;8.75;;
43552;SDS011;29153;42.696;23.218;2023-04-03T16:07:58;16.77;;;7.35;;
43552;SDS011;29153;42.696;23.218;2023-04-03T16:10:27;20.92;;;10.20;;
43552;SDS011;29153;42.696;23.218;2023-04-03T16:12:55;14.78;;;8.48;;
43552;SDS011;29153;42.696;23.218;2023-04-03T16:15:23;14.25;;;8.83;;
43552;SDS011;29153;42.696;23.218;2023-04-03T16:17:52;32.63;;;16.27;;
43552;SDS011;29153;42.696;23.218;2023-04-03T16:22:47;17.37;;;9.08;;
43552;SDS011;29153;42.696;23.218;2023-04-03T16:25:15;14.50;;;8.18;;
43552;SDS011;29153;42.696;23.218;2023-04-03T16:27:43;13.60;;;7.35;;
43552;SDS011;29153;42.696;23.218;2023-04-03T16:30:11;19.77;;;10.72;;
43552;SDS011;29153;42.696;23.218;2023-04-03T16:32:39;14.20;;;9.25;;
43552;SDS011;29153;42.696;23.218;2023-04-03T16:35:09;36.33;;;18.75;;
43552;SDS011;29153;42.696;23.218;2023-04-03T16:40:05;22.25;;;12.05;;
43552;SDS011;29153;42.696;23.218;2023-04-03T16:45:00;22.73;;;11.63;;
43552;SDS011;29153;42.696;23.218;2023-04-03T16:47:29;21.07;;;11.18;;
43552;SDS011;29153;42.696;23.218;2023-04-03T16:49:56;41.05;;;18.07;;
43552;SDS011;29153;42.696;23.218;2023-04-03T16:52:24;26.27;;;14.30;;
43552;SDS011;29153;42.696;23.218;2023-04-03T16:54:52;25.92;;;12.43;;
43552;SDS011;29153;42.696;23.218;2023-04-03T16:57:21;22.22;;;12.10;;
43552;SDS011;29153;42.696;23.218;2023-04-03T16:59:50;23.00;;;12.88;;
43552;SDS011;29153;42.696;23.218;2023-04-03T17:04:49;22.98;;;11.22;;
43552;SDS011;29153;42.696;23.218;2023-04-03T17:07:18;18.95;;;10.13;;